sensor_id;sensor_type;location;lat;lon;timestamp;temperature;humidity
44069;DHT22;29738;51.234;5.484;2023-01-08T00:02:02;10.40;99.90
44069;DHT22;29738;51.234;5.484;2023-01-08T00:04:28;10.40;99.90
44069;DHT22;29738;51.234;5.484;2023-01-08T00:06:53;10.30;99.90
44069;DHT22;29738;51.234;5.484;2023-01-08T00:09:19;10.30;99.90
44069;DHT22;29738;51.234;5.484;2023-01-08T00:11:45;10.40;99.90
44069;DHT22;29738;51.234;5.484;2023-01-08T00:14:13;10.40;99.90
44069;DHT22;29738;51.234;5.484;2023-01-08T00:16:39;10.40;99.90
44069;DHT22;29738;51.234;5.484;2023-01-08T00:19:04;10.40;99.90
44069;DHT22;29738;51.234;5.484;2023-01-08T00:21:30;10.40;99.90
44069;DHT22;29738;51.234;5.484;2023-01-08T00:23:56;10.40;99.90
44069;DHT22;29738;51.234;5.484;2023-01-08T00:26:22;10.30;99.90
44069;DHT22;29738;51.234;5.484;2023-01-08T00:28:47;10.40;99.90
44069;DHT22;29738;51.234;5.484;2023-01-08T00:31:13;10.40;99.90
44069;DHT22;29738;51.234;5.484;2023-01-08T00:33:39;10.40;99.90
44069;DHT22;29738;51.234;5.484;2023-01-08T00:36:14;10.30;99.90
44069;DHT22;29738;51.234;5.484;2023-01-08T00:38:41;10.30;99.90
44069;DHT22;29738;51.234;5.484;2023-01-08T00:41:08;10.30;99.90
44069;DHT22;29738;51.234;5.484;2023-01-08T00:43:33;10.30;99.90
44069;DHT22;29738;51.234;5.484;2023-01-08T00:45:59;10.30;99.90
44069;DHT22;29738;51.234;5.484;2023-01-08T00:48:25;10.30;99.90
44069;DHT22;29738;51.234;5.484;2023-01-08T00:50:52;10.30;99.90
44069;DHT22;29738;51.234;5.484;2023-01-08T00:53:19;10.40;99.90
44069;DHT22;29738;51.234;5.484;2023-01-08T00:55:44;10.40;99.90
44069;DHT22;29738;51.234;5.484;2023-01-08T00:58:11;10.40;99.90
44069;DHT22;29738;51.234;5.484;2023-01-08T01:00:37;10.40;99.90
44069;DHT22;29738;51.234;5.484;2023-01-08T01:03:03;10.40;99.90
44069;DHT22;29738;51.234;5.484;2023-01-08T01:05:29;10.40;99.90
44069;DHT22;29738;51.234;5.484;2023-01-08T01:07:54;10.40;99.90
44069;DHT22;29738;51.234;5.484;2023-01-08T01:10:21;10.40;99.90
44069;DHT22;29738;51.234;5.484;2023-01-08T01:12:47;10.50;99.90
44069;DHT22;29738;51.234;5.484;2023-01-08T01:15:15;10.40;99.90
44069;DHT22;29738;51.234;5.484;2023-01-08T01:17:43;10.40;99.90
44069;DHT22;29738;51.234;5.484;2023-01-08T01:20:12;10.40;99.90
44069;DHT22;29738;51.234;5.484;2023-01-08T01:22:38;10.40;99.90
44069;DHT22;29738;51.234;5.484;2023-01-08T01:25:04;10.30;99.90
44069;DHT22;29738;51.234;5.484;2023-01-08T01:27:30;10.40;99.90
44069;DHT22;29738;51.234;5.484;2023-01-08T01:29:56;10.40;99.90
44069;DHT22;29738;51.234;5.484;2023-01-08T01:32:21;10.30;99.90
44069;DHT22;29738;51.234;5.484;2023-01-08T01:34:47;10.40;99.90
44069;DHT22;29738;51.234;5.484;2023-01-08T01:37:13;10.40;99.90
44069;DHT22;29738;51.234;5.484;2023-01-08T01:39:42;10.50;99.90
44069;DHT22;29738;51.234;5.484;2023-01-08T01:42:14;10.50;99.90
44069;DHT22;29738;51.234;5.484;2023-01-08T01:45:00;10.50;99.90
44069;DHT22;29738;51.234;5.484;2023-01-08T01:47:36;10.50;99.90
44069;DHT22;29738;51.234;5.484;2023-01-08T01:52:44;10.50;99.90
44069;DHT22;29738;51.234;5.484;2023-01-08T01:55:11;10.50;99.90
44069;DHT22;29738;51.234;5.484;2023-01-08T01:57:38;10.50;99.90
44069;DHT22;29738;51.234;5.484;2023-01-08T02:00:07;10.50;99.90
44069;DHT22;29738;51.234;5.484;2023-01-08T02:02:33;10.50;99.90
44069;DHT22;29738;51.234;5.484;2023-01-08T02:05:00;10.60;99.90
44069;DHT22;29738;51.234;5.484;2023-01-08T02:12:52;10.40;99.90
44069;DHT22;29738;51.234;5.484;2023-01-08T02:18:17;9.60;99.90
44069;DHT22;29738;51.234;5.484;2023-01-08T02:26:26;9.00;99.90
44069;DHT22;29738;51.234;5.484;2023-01-08T02:31:28;8.90;99.90
44069;DHT22;29738;51.234;5.484;2023-01-08T02:33:54;8.90;99.90
44069;DHT22;29738;51.234;5.484;2023-01-08T02:39:20;9.00;99.90
44069;DHT22;29738;51.234;5.484;2023-01-08T02:47:05;8.90;99.90
44069;DHT22;29738;51.234;5.484;2023-01-08T02:49:36;9.00;99.90
44069;DHT22;29738;51.234;5.484;2023-01-08T02:52:04;9.00;99.90
44069;DHT22;29738;51.234;5.484;2023-01-08T02:54:33;9.00;99.90
44069;DHT22;29738;51.234;5.484;2023-01-08T02:57:04;8.90;99.90
44069;DHT22;29738;51.234;5.484;2023-01-08T02:59:32;9.00;99.90
44069;DHT22;29738;51.234;5.484;2023-01-08T03:02:00;9.00;99.90
44069;DHT22;29738;51.234;5.484;2023-01-08T03:04:27;8.90;99.90
44069;DHT22;29738;51.234;5.484;2023-01-08T03:06:56;8.90;99.90
44069;DHT22;29738;51.234;5.484;2023-01-08T03:09:22;8.70;99.90
44069;DHT22;29738;51.234;5.484;2023-01-08T03:11:55;8.70;99.90
44069;DHT22;29738;51.234;5.484;2023-01-08T03:14:30;8.70;99.90
44069;DHT22;29738;51.234;5.484;2023-01-08T03:17:00;8.80;99.90
44069;DHT22;29738;51.234;5.484;2023-01-08T03:19:39;8.90;99.90
44069;DHT22;29738;51.234;5.484;2023-01-08T03:22:08;9.00;99.90
44069;DHT22;29738;51.234;5.484;2023-01-08T03:24:37;8.90;99.90
44069;DHT22;29738;51.234;5.484;2023-01-08T03:27:05;8.80;99.90
44069;DHT22;29738;51.234;5.484;2023-01-08T03:29:34;8.70;99.90
44069;DHT22;29738;51.234;5.484;2023-01-08T03:32:04;8.90;99.90
44069;DHT22;29738;51.234;5.484;2023-01-08T03:34:31;8.90;99.90
44069;DHT22;29738;51.234;5.484;2023-01-08T03:37:00;8.90;99.90
44069;DHT22;29738;51.234;5.484;2023-01-08T03:39:30;9.00;99.90
44069;DHT22;29738;51.234;5.484;2023-01-08T03:42:00;9.10;99.90
44069;DHT22;29738;51.234;5.484;2023-01-08T03:44:27;9.20;99.90
44069;DHT22;29738;51.234;5.484;2023-01-08T03:46:53;9.20;99.90
44069;DHT22;29738;51.234;5.484;2023-01-08T03:49:25;9.20;99.90
44069;DHT22;29738;51.234;5.484;2023-01-08T03:51:53;9.10;99.90
44069;DHT22;29738;51.234;5.484;2023-01-08T03:54:24;9.10;99.90
44069;DHT22;29738;51.234;5.484;2023-01-08T03:56:53;9.10;99.90
44069;DHT22;29738;51.234;5.484;2023-01-08T03:59:19;9.00;99.90
44069;DHT22;29738;51.234;5.484;2023-01-08T04:01:44;9.10;99.90
44069;DHT22;29738;51.234;5.484;2023-01-08T04:04:10;9.20;99.90
44069;DHT22;29738;51.234;5.484;2023-01-08T04:06:36;9.30;99.90
44069;DHT22;29738;51.234;5.484;2023-01-08T04:09:02;9.10;99.90
44069;DHT22;29738;51.234;5.484;2023-01-08T04:11:28;9.10;99.90
44069;DHT22;29738;51.234;5.484;2023-01-08T04:13:54;9.30;99.90
44069;DHT22;29738;51.234;5.484;2023-01-08T04:16:20;9.40;99.90
44069;DHT22;29738;51.234;5.484;2023-01-08T04:18:46;9.40;99.90
44069;DHT22;29738;51.234;5.484;2023-01-08T04:21:11;9.50;99.90
44069;DHT22;29738;51.234;5.484;2023-01-08T04:23:37;9.40;99.90
44069;DHT22;29738;51.234;5.484;2023-01-08T04:26:06;9.50;99.90
44069;DHT22;29738;51.234;5.484;2023-01-08T04:28:32;9.50;99.90
44069;DHT22;29738;51.234;5.484;2023-01-08T04:30:58;9.50;99.90
44069;DHT22;29738;51.234;5.484;2023-01-08T04:33:23;9.50;99.90
44069;DHT22;29738;51.234;5.484;2023-01-08T04:35:50;9.50;99.90
44069;DHT22;29738;51.234;5.484;2023-01-08T04:38:16;9.40;99.90
44069;DHT22;29738;51.234;5.484;2023-01-08T04:40:42;9.30;99.90
44069;DHT22;29738;51.234;5.484;2023-01-08T04:43:08;9.30;99.90
44069;DHT22;29738;51.234;5.484;2023-01-08T04:45:34;9.30;99.90
44069;DHT22;29738;51.234;5.484;2023-01-08T04:48:00;9.20;99.90
44069;DHT22;29738;51.234;5.484;2023-01-08T04:50:26;9.20;99.90
44069;DHT22;29738;51.234;5.484;2023-01-08T04:52:52;9.20;99.90
44069;DHT22;29738;51.234;5.484;2023-01-08T04:55:18;9.20;99.90
44069;DHT22;29738;51.234;5.484;2023-01-08T04:57:44;9.40;99.90
44069;DHT22;29738;51.234;5.484;2023-01-08T05:00:11;9.40;99.90
44069;DHT22;29738;51.234;5.484;2023-01-08T05:02:36;9.30;99.90
44069;DHT22;29738;51.234;5.484;2023-01-08T05:05:04;9.30;99.90
44069;DHT22;29738;51.234;5.484;2023-01-08T05:07:29;9.30;99.90
44069;DHT22;29738;51.234;5.484;2023-01-08T05:09:55;9.20;99.90
44069;DHT22;29738;51.234;5.484;2023-01-08T05:12:21;9.10;99.90
44069;DHT22;29738;51.234;5.484;2023-01-08T05:14:47;9.10;99.90
44069;DHT22;29738;51.234;5.484;2023-01-08T05:17:12;9.10;99.90
44069;DHT22;29738;51.234;5.484;2023-01-08T05:19:38;9.10;99.90
44069;DHT22;29738;51.234;5.484;2023-01-08T05:22:04;9.10;99.90
44069;DHT22;29738;51.234;5.484;2023-01-08T05:24:29;9.20;99.90
44069;DHT22;29738;51.234;5.484;2023-01-08T05:26:55;9.10;99.90
44069;DHT22;29738;51.234;5.484;2023-01-08T05:29:21;9.00;99.90
44069;DHT22;29738;51.234;5.484;2023-01-08T05:31:47;8.90;99.90
44069;DHT22;29738;51.234;5.484;2023-01-08T05:34:12;9.00;99.90
44069;DHT22;29738;51.234;5.484;2023-01-08T05:36:38;9.00;99.90
44069;DHT22;29738;51.234;5.484;2023-01-08T05:39:04;8.90;99.90
44069;DHT22;29738;51.234;5.484;2023-01-08T05:41:30;8.80;99.90
44069;DHT22;29738;51.234;5.484;2023-01-08T05:43:55;8.70;99.90
44069;DHT22;29738;51.234;5.484;2023-01-08T05:46:21;8.70;99.90
44069;DHT22;29738;51.234;5.484;2023-01-08T05:48:47;8.60;99.90
44069;DHT22;29738;51.234;5.484;2023-01-08T05:51:13;8.50;99.90
44069;DHT22;29738;51.234;5.484;2023-01-08T05:53:38;8.50;99.90
44069;DHT22;29738;51.234;5.484;2023-01-08T05:56:06;8.30;99.90
44069;DHT22;29738;51.234;5.484;2023-01-08T05:58:32;8.30;99.90
44069;DHT22;29738;51.234;5.484;2023-01-08T06:01:07;8.20;99.90
44069;DHT22;29738;51.234;5.484;2023-01-08T06:03:33;8.10;99.90
44069;DHT22;29738;51.234;5.484;2023-01-08T06:06:00;7.90;99.90
44069;DHT22;29738;51.234;5.484;2023-01-08T06:08:27;7.80;99.90
44069;DHT22;29738;51.234;5.484;2023-01-08T06:10:53;7.90;99.90
44069;DHT22;29738;51.234;5.484;2023-01-08T06:13:19;7.70;99.90
44069;DHT22;29738;51.234;5.484;2023-01-08T06:15:44;7.70;99.90
44069;DHT22;29738;51.234;5.484;2023-01-08T06:18:10;7.70;99.90
44069;DHT22;29738;51.234;5.484;2023-01-08T06:20:36;7.60;99.90
44069;DHT22;29738;51.234;5.484;2023-01-08T06:23:02;7.50;99.90
44069;DHT22;29738;51.234;5.484;2023-01-08T06:25:27;7.30;99.90
44069;DHT22;29738;51.234;5.484;2023-01-08T06:27:54;7.30;99.90
44069;DHT22;29738;51.234;5.484;2023-01-08T06:30:20;7.30;99.90
44069;DHT22;29738;51.234;5.484;2023-01-08T06:32:45;7.30;99.90
44069;DHT22;29738;51.234;5.484;2023-01-08T06:35:11;7.30;99.90
44069;DHT22;29738;51.234;5.484;2023-01-08T06:37:37;7.20;99.90
44069;DHT22;29738;51.234;5.484;2023-01-08T06:40:03;7.20;99.90
44069;DHT22;29738;51.234;5.484;2023-01-08T06:42:29;7.20;99.90
44069;DHT22;29738;51.234;5.484;2023-01-08T06:44:54;7.20;99.90
44069;DHT22;29738;51.234;5.484;2023-01-08T06:47:20;7.20;99.90
44069;DHT22;29738;51.234;5.484;2023-01-08T06:49:46;7.20;99.90
44069;DHT22;29738;51.234;5.484;2023-01-08T06:52:11;7.30;99.90
44069;DHT22;29738;51.234;5.484;2023-01-08T06:54:37;7.20;99.90
44069;DHT22;29738;51.234;5.484;2023-01-08T06:57:03;7.20;99.90
44069;DHT22;29738;51.234;5.484;2023-01-08T06:59:28;7.10;99.90
44069;DHT22;29738;51.234;5.484;2023-01-08T07:01:54;7.20;99.90
44069;DHT22;29738;51.234;5.484;2023-01-08T07:04:20;7.20;99.90
44069;DHT22;29738;51.234;5.484;2023-01-08T07:06:46;7.20;99.90
44069;DHT22;29738;51.234;5.484;2023-01-08T07:09:13;7.20;99.90
44069;DHT22;29738;51.234;5.484;2023-01-08T07:11:40;7.30;99.90
44069;DHT22;29738;51.234;5.484;2023-01-08T07:14:06;7.40;99.90
44069;DHT22;29738;51.234;5.484;2023-01-08T07:16:32;7.40;99.90
44069;DHT22;29738;51.234;5.484;2023-01-08T07:18:57;7.40;99.90
44069;DHT22;29738;51.234;5.484;2023-01-08T07:21:23;7.50;99.90
44069;DHT22;29738;51.234;5.484;2023-01-08T07:23:49;7.40;99.90
44069;DHT22;29738;51.234;5.484;2023-01-08T07:26:15;7.30;99.90
44069;DHT22;29738;51.234;5.484;2023-01-08T07:28:41;7.30;99.90
44069;DHT22;29738;51.234;5.484;2023-01-08T07:31:07;7.40;99.90
44069;DHT22;29738;51.234;5.484;2023-01-08T07:33:33;7.40;99.90
44069;DHT22;29738;51.234;5.484;2023-01-08T07:35:59;7.40;99.90
44069;DHT22;29738;51.234;5.484;2023-01-08T07:38:25;7.30;99.90
44069;DHT22;29738;51.234;5.484;2023-01-08T07:40:51;7.30;99.90
44069;DHT22;29738;51.234;5.484;2023-01-08T07:43:19;7.40;99.90
44069;DHT22;29738;51.234;5.484;2023-01-08T07:45:45;7.40;99.90
44069;DHT22;29738;51.234;5.484;2023-01-08T07:48:11;7.30;99.90
44069;DHT22;29738;51.234;5.484;2023-01-08T07:50:42;7.20;99.90
44069;DHT22;29738;51.234;5.484;2023-01-08T07:53:08;7.30;99.90
44069;DHT22;29738;51.234;5.484;2023-01-08T07:55:34;7.30;99.90
44069;DHT22;29738;51.234;5.484;2023-01-08T07:57:59;7.20;99.90
44069;DHT22;29738;51.234;5.484;2023-01-08T08:00:25;7.30;99.90
44069;DHT22;29738;51.234;5.484;2023-01-08T08:02:51;7.40;99.90
44069;DHT22;29738;51.234;5.484;2023-01-08T08:05:17;7.40;99.90
44069;DHT22;29738;51.234;5.484;2023-01-08T08:07:43;7.50;99.90
44069;DHT22;29738;51.234;5.484;2023-01-08T08:10:09;7.50;99.90
44069;DHT22;29738;51.234;5.484;2023-01-08T08:12:36;7.60;99.90
44069;DHT22;29738;51.234;5.484;2023-01-08T08:15:02;7.70;99.90
44069;DHT22;29738;51.234;5.484;2023-01-08T08:17:28;7.60;99.90
44069;DHT22;29738;51.234;5.484;2023-01-08T08:19:53;7.70;99.90
44069;DHT22;29738;51.234;5.484;2023-01-08T08:22:19;7.70;99.90
44069;DHT22;29738;51.234;5.484;2023-01-08T08:24:45;7.70;99.90
44069;DHT22;29738;51.234;5.484;2023-01-08T08:27:11;7.70;99.90
44069;DHT22;29738;51.234;5.484;2023-01-08T08:29:36;7.90;99.90
44069;DHT22;29738;51.234;5.484;2023-01-08T08:32:02;7.90;99.90
44069;DHT22;29738;51.234;5.484;2023-01-08T08:34:28;7.80;99.90
44069;DHT22;29738;51.234;5.484;2023-01-08T08:36:56;7.80;99.90
44069;DHT22;29738;51.234;5.484;2023-01-08T08:39:22;7.90;99.90
44069;DHT22;29738;51.234;5.484;2023-01-08T08:41:48;7.80;99.90
44069;DHT22;29738;51.234;5.484;2023-01-08T08:44:14;7.90;99.90
44069;DHT22;29738;51.234;5.484;2023-01-08T08:46:39;7.80;99.90
44069;DHT22;29738;51.234;5.484;2023-01-08T08:49:05;8.00;99.90
44069;DHT22;29738;51.234;5.484;2023-01-08T08:51:31;7.90;99.90
44069;DHT22;29738;51.234;5.484;2023-01-08T08:53:56;8.00;99.90
44069;DHT22;29738;51.234;5.484;2023-01-08T08:56:22;8.00;99.90
44069;DHT22;29738;51.234;5.484;2023-01-08T08:58:48;8.10;99.90
44069;DHT22;29738;51.234;5.484;2023-01-08T09:01:16;8.10;99.90
44069;DHT22;29738;51.234;5.484;2023-01-08T09:03:42;8.10;99.90
44069;DHT22;29738;51.234;5.484;2023-01-08T09:06:12;8.10;99.90
44069;DHT22;29738;51.234;5.484;2023-01-08T09:08:38;8.20;99.90
44069;DHT22;29738;51.234;5.484;2023-01-08T09:11:04;8.20;99.90
44069;DHT22;29738;51.234;5.484;2023-01-08T09:13:30;8.20;99.90
44069;DHT22;29738;51.234;5.484;2023-01-08T09:15:59;8.20;99.90
44069;DHT22;29738;51.234;5.484;2023-01-08T09:18:25;8.30;99.90
44069;DHT22;29738;51.234;5.484;2023-01-08T09:20:51;8.30;99.90
44069;DHT22;29738;51.234;5.484;2023-01-08T09:23:16;8.30;99.90
44069;DHT22;29738;51.234;5.484;2023-01-08T09:25:42;8.40;99.90
44069;DHT22;29738;51.234;5.484;2023-01-08T09:28:11;8.40;99.90
44069;DHT22;29738;51.234;5.484;2023-01-08T09:30:37;8.40;99.90
44069;DHT22;29738;51.234;5.484;2023-01-08T09:33:04;8.30;99.90
44069;DHT22;29738;51.234;5.484;2023-01-08T09:35:31;8.30;99.90
44069;DHT22;29738;51.234;5.484;2023-01-08T09:37:57;8.30;99.90
44069;DHT22;29738;51.234;5.484;2023-01-08T09:40:30;8.40;99.90
44069;DHT22;29738;51.234;5.484;2023-01-08T09:42:59;8.50;99.90
44069;DHT22;29738;51.234;5.484;2023-01-08T09:45:27;8.50;99.90
44069;DHT22;29738;51.234;5.484;2023-01-08T09:47:56;8.40;99.90
44069;DHT22;29738;51.234;5.484;2023-01-08T09:50:26;8.40;99.90
44069;DHT22;29738;51.234;5.484;2023-01-08T09:52:52;8.50;99.90
44069;DHT22;29738;51.234;5.484;2023-01-08T09:55:19;8.50;99.90
44069;DHT22;29738;51.234;5.484;2023-01-08T09:57:45;8.40;99.90
44069;DHT22;29738;51.234;5.484;2023-01-08T10:00:18;8.50;99.90
44069;DHT22;29738;51.234;5.484;2023-01-08T10:02:45;8.50;99.90
44069;DHT22;29738;51.234;5.484;2023-01-08T10:05:14;8.50;99.90
44069;DHT22;29738;51.234;5.484;2023-01-08T10:07:40;8.50;99.90
44069;DHT22;29738;51.234;5.484;2023-01-08T10:12:40;8.50;99.90
44069;DHT22;29738;51.234;5.484;2023-01-08T10:15:13;8.30;99.90
44069;DHT22;29738;51.234;5.484;2023-01-08T10:17:41;8.40;99.90
44069;DHT22;29738;51.234;5.484;2023-01-08T10:20:10;8.30;99.90
44069;DHT22;29738;51.234;5.484;2023-01-08T10:22:37;8.30;99.90
44069;DHT22;29738;51.234;5.484;2023-01-08T10:25:09;8.30;99.90
44069;DHT22;29738;51.234;5.484;2023-01-08T10:27:55;8.20;99.90
44069;DHT22;29738;51.234;5.484;2023-01-08T10:30:34;8.20;99.90
44069;DHT22;29738;51.234;5.484;2023-01-08T10:33:05;8.40;99.90
44069;DHT22;29738;51.234;5.484;2023-01-08T10:35:37;8.40;99.90
44069;DHT22;29738;51.234;5.484;2023-01-08T10:38:03;8.50;99.90
44069;DHT22;29738;51.234;5.484;2023-01-08T10:40:48;8.60;99.90
44069;DHT22;29738;51.234;5.484;2023-01-08T10:43:26;8.90;99.90
44069;DHT22;29738;51.234;5.484;2023-01-08T10:46:11;8.90;99.90
44069;DHT22;29738;51.234;5.484;2023-01-08T10:48:45;9.10;99.90
44069;DHT22;29738;51.234;5.484;2023-01-08T10:51:21;9.20;99.90
44069;DHT22;29738;51.234;5.484;2023-01-08T10:53:48;9.10;99.90
44069;DHT22;29738;51.234;5.484;2023-01-08T10:56:19;9.20;99.90
44069;DHT22;29738;51.234;5.484;2023-01-08T10:58:45;9.20;99.90
44069;DHT22;29738;51.234;5.484;2023-01-08T11:01:24;9.20;99.90
44069;DHT22;29738;51.234;5.484;2023-01-08T11:06:24;9.20;99.90
44069;DHT22;29738;51.234;5.484;2023-01-08T11:08:57;9.20;99.90
44069;DHT22;29738;51.234;5.484;2023-01-08T11:11:30;9.30;99.90
44069;DHT22;29738;51.234;5.484;2023-01-08T11:13:59;9.40;99.90
44069;DHT22;29738;51.234;5.484;2023-01-08T11:16:36;9.20;99.90
44069;DHT22;29738;51.234;5.484;2023-01-08T11:19:12;9.30;99.90
44069;DHT22;29738;51.234;5.484;2023-01-08T11:21:39;9.20;99.90
44069;DHT22;29738;51.234;5.484;2023-01-08T11:24:17;9.20;99.90
44069;DHT22;29738;51.234;5.484;2023-01-08T11:37:40;9.20;99.90
44069;DHT22;29738;51.234;5.484;2023-01-08T11:40:16;9.20;99.90
44069;DHT22;29738;51.234;5.484;2023-01-08T11:51:24;9.30;99.90
44069;DHT22;29738;51.234;5.484;2023-01-08T11:54:07;9.40;99.90
44069;DHT22;29738;51.234;5.484;2023-01-08T12:07:32;9.40;99.90
44069;DHT22;29738;51.234;5.484;2023-01-08T12:10:22;9.50;99.90
44069;DHT22;29738;51.234;5.484;2023-01-08T12:13:01;9.50;99.90
44069;DHT22;29738;51.234;5.484;2023-01-08T12:21:39;9.60;99.90
44069;DHT22;29738;51.234;5.484;2023-01-08T12:28:01;9.80;99.90
44069;DHT22;29738;51.234;5.484;2023-01-08T12:32:46;9.80;99.90
44069;DHT22;29738;51.234;5.484;2023-01-08T12:38:40;10.20;99.90
44069;DHT22;29738;51.234;5.484;2023-01-08T12:41:12;10.00;99.90
44069;DHT22;29738;51.234;5.484;2023-01-08T12:43:58;10.00;99.90
44069;DHT22;29738;51.234;5.484;2023-01-08T12:46:33;9.90;99.90
44069;DHT22;29738;51.234;5.484;2023-01-08T12:49:00;10.00;99.90
44069;DHT22;29738;51.234;5.484;2023-01-08T13:05:35;10.00;99.90
44069;DHT22;29738;51.234;5.484;2023-01-08T13:08:07;10.20;99.90
44069;DHT22;29738;51.234;5.484;2023-01-08T13:10:52;10.30;99.90
44069;DHT22;29738;51.234;5.484;2023-01-08T13:13:29;10.30;99.90
44069;DHT22;29738;51.234;5.484;2023-01-08T13:18:38;10.40;99.90
44069;DHT22;29738;51.234;5.484;2023-01-08T13:21:06;10.40;99.90
44069;DHT22;29738;51.234;5.484;2023-01-08T13:23:34;10.40;99.90
44069;DHT22;29738;51.234;5.484;2023-01-08T13:26:03;10.50;99.90
44069;DHT22;29738;51.234;5.484;2023-01-08T13:31:27;10.20;99.90
44069;DHT22;29738;51.234;5.484;2023-01-08T13:33:54;10.30;99.90
44069;DHT22;29738;51.234;5.484;2023-01-08T13:36:26;10.20;99.90
44069;DHT22;29738;51.234;5.484;2023-01-08T13:39:30;10.30;99.90
44069;DHT22;29738;51.234;5.484;2023-01-08T13:44:32;10.30;99.90
44069;DHT22;29738;51.234;5.484;2023-01-08T13:47:25;10.30;99.90
44069;DHT22;29738;51.234;5.484;2023-01-08T13:49:53;10.30;99.90
44069;DHT22;29738;51.234;5.484;2023-01-08T13:52:28;10.10;99.90
44069;DHT22;29738;51.234;5.484;2023-01-08T13:54:56;10.00;99.90
44069;DHT22;29738;51.234;5.484;2023-01-08T13:57:22;10.00;99.90
44069;DHT22;29738;51.234;5.484;2023-01-08T13:59:52;10.10;99.90
44069;DHT22;29738;51.234;5.484;2023-01-08T14:02:28;10.00;99.90
44069;DHT22;29738;51.234;5.484;2023-01-08T14:04:56;10.00;99.90
44069;DHT22;29738;51.234;5.484;2023-01-08T14:07:22;10.00;99.90
44069;DHT22;29738;51.234;5.484;2023-01-08T14:09:49;9.90;99.90
44069;DHT22;29738;51.234;5.484;2023-01-08T14:12:20;9.90;99.90
44069;DHT22;29738;51.234;5.484;2023-01-08T14:14:56;10.00;99.90
44069;DHT22;29738;51.234;5.484;2023-01-08T14:17:29;9.80;99.90
44069;DHT22;29738;51.234;5.484;2023-01-08T14:19:55;10.00;99.90
44069;DHT22;29738;51.234;5.484;2023-01-08T14:22:32;10.00;99.90
44069;DHT22;29738;51.234;5.484;2023-01-08T14:25:02;10.10;99.90
44069;DHT22;29738;51.234;5.484;2023-01-08T14:27:30;10.10;99.90
44069;DHT22;29738;51.234;5.484;2023-01-08T14:29:56;10.20;99.90
44069;DHT22;29738;51.234;5.484;2023-01-08T14:32:24;10.40;99.90
44069;DHT22;29738;51.234;5.484;2023-01-08T14:34:52;10.30;99.90
44069;DHT22;29738;51.234;5.484;2023-01-08T14:37:19;10.20;99.90
44069;DHT22;29738;51.234;5.484;2023-01-08T14:39:46;10.10;99.90
44069;DHT22;29738;51.234;5.484;2023-01-08T14:42:34;10.00;99.90
44069;DHT22;29738;51.234;5.484;2023-01-08T14:45:16;9.90;99.90
44069;DHT22;29738;51.234;5.484;2023-01-08T14:47:44;9.80;99.90
44069;DHT22;29738;51.234;5.484;2023-01-08T14:50:27;9.80;99.90
44069;DHT22;29738;51.234;5.484;2023-01-08T14:52:54;9.80;99.90
44069;DHT22;29738;51.234;5.484;2023-01-08T14:55:21;9.70;99.90
44069;DHT22;29738;51.234;5.484;2023-01-08T14:57:53;9.80;99.90
44069;DHT22;29738;51.234;5.484;2023-01-08T15:00:25;10.00;99.90
44069;DHT22;29738;51.234;5.484;2023-01-08T15:02:51;10.10;99.90
44069;DHT22;29738;51.234;5.484;2023-01-08T15:05:29;10.10;99.90
44069;DHT22;29738;51.234;5.484;2023-01-08T15:08:18;10.00;99.90
44069;DHT22;29738;51.234;5.484;2023-01-08T15:11:06;10.00;99.90
44069;DHT22;29738;51.234;5.484;2023-01-08T15:13:34;9.80;99.90
44069;DHT22;29738;51.234;5.484;2023-01-08T15:16:11;9.80;99.90
44069;DHT22;29738;51.234;5.484;2023-01-08T15:18:44;9.70;99.90
44069;DHT22;29738;51.234;5.484;2023-01-08T15:21:19;9.70;99.90
44069;DHT22;29738;51.234;5.484;2023-01-08T15:23:48;9.60;99.90
44069;DHT22;29738;51.234;5.484;2023-01-08T15:26:15;9.60;99.90
44069;DHT22;29738;51.234;5.484;2023-01-08T15:28:55;9.60;99.90
44069;DHT22;29738;51.234;5.484;2023-01-08T15:34:01;9.60;99.90
44069;DHT22;29738;51.234;5.484;2023-01-08T15:36:27;9.70;99.90
44069;DHT22;29738;51.234;5.484;2023-01-08T15:38:53;9.80;99.90
44069;DHT22;29738;51.234;5.484;2023-01-08T15:41:20;9.80;99.90
44069;DHT22;29738;51.234;5.484;2023-01-08T15:44:06;9.80;99.90
44069;DHT22;29738;51.234;5.484;2023-01-08T15:46:31;9.80;99.90
44069;DHT22;29738;51.234;5.484;2023-01-08T15:48:57;9.80;99.90
44069;DHT22;29738;51.234;5.484;2023-01-08T15:51:23;9.60;99.90
44069;DHT22;29738;51.234;5.484;2023-01-08T15:53:49;9.60;99.90
44069;DHT22;29738;51.234;5.484;2023-01-08T15:56:15;9.40;99.90
44069;DHT22;29738;51.234;5.484;2023-01-08T15:58:41;9.40;99.90
44069;DHT22;29738;51.234;5.484;2023-01-08T16:01:08;9.40;99.90
44069;DHT22;29738;51.234;5.484;2023-01-08T16:03:33;9.40;99.90
44069;DHT22;29738;51.234;5.484;2023-01-08T16:05:59;9.40;99.90
44069;DHT22;29738;51.234;5.484;2023-01-08T16:08:25;9.20;99.90
44069;DHT22;29738;51.234;5.484;2023-01-08T16:10:51;9.10;99.90
44069;DHT22;29738;51.234;5.484;2023-01-08T16:13:17;9.00;99.90
44069;DHT22;29738;51.234;5.484;2023-01-08T16:15:43;9.10;99.90
44069;DHT22;29738;51.234;5.484;2023-01-08T16:18:09;9.10;99.90
44069;DHT22;29738;51.234;5.484;2023-01-08T16:20:35;9.10;99.90
44069;DHT22;29738;51.234;5.484;2023-01-08T16:23:00;9.10;99.90
44069;DHT22;29738;51.234;5.484;2023-01-08T16:25:26;9.10;99.90
44069;DHT22;29738;51.234;5.484;2023-01-08T16:27:53;9.10;99.90
44069;DHT22;29738;51.234;5.484;2023-01-08T16:30:19;9.10;99.90
44069;DHT22;29738;51.234;5.484;2023-01-08T16:32:50;9.00;99.90
44069;DHT22;29738;51.234;5.484;2023-01-08T16:35:16;9.00;99.90
44069;DHT22;29738;51.234;5.484;2023-01-08T16:37:41;9.00;99.90
44069;DHT22;29738;51.234;5.484;2023-01-08T16:40:08;8.90;99.90
44069;DHT22;29738;51.234;5.484;2023-01-08T16:42:35;8.90;99.90
44069;DHT22;29738;51.234;5.484;2023-01-08T16:45:01;8.70;99.90
44069;DHT22;29738;51.234;5.484;2023-01-08T16:47:27;8.80;99.90
44069;DHT22;29738;51.234;5.484;2023-01-08T16:49:53;8.90;99.90
44069;DHT22;29738;51.234;5.484;2023-01-08T16:52:18;9.00;99.90
44069;DHT22;29738;51.234;5.484;2023-01-08T16:54:45;9.10;99.90
44069;DHT22;29738;51.234;5.484;2023-01-08T16:57:10;9.00;99.90
44069;DHT22;29738;51.234;5.484;2023-01-08T16:59:36;9.10;99.90
44069;DHT22;29738;51.234;5.484;2023-01-08T17:02:02;9.20;99.90
44069;DHT22;29738;51.234;5.484;2023-01-08T17:04:28;9.10;99.90
44069;DHT22;29738;51.234;5.484;2023-01-08T17:06:55;9.20;99.90
44069;DHT22;29738;51.234;5.484;2023-01-08T17:09:21;9.10;99.90
44069;DHT22;29738;51.234;5.484;2023-01-08T17:11:47;9.00;99.90
44069;DHT22;29738;51.234;5.484;2023-01-08T17:14:13;9.00;99.90
44069;DHT22;29738;51.234;5.484;2023-01-08T17:16:39;8.90;99.90
44069;DHT22;29738;51.234;5.484;2023-01-08T17:19:07;9.00;99.90
44069;DHT22;29738;51.234;5.484;2023-01-08T17:21:33;8.90;99.90
44069;DHT22;29738;51.234;5.484;2023-01-08T17:24:00;8.80;99.90
44069;DHT22;29738;51.234;5.484;2023-01-08T17:26:26;8.80;99.90
44069;DHT22;29738;51.234;5.484;2023-01-08T17:28:53;8.60;99.90
44069;DHT22;29738;51.234;5.484;2023-01-08T17:31:19;8.60;99.90
44069;DHT22;29738;51.234;5.484;2023-01-08T17:33:46;8.70;99.90